sensor_id;sensor_type;location;lat;lon;timestamp;temperature;humidity
47022;DHT22;32779;52.264;6.154;2022-12-07T00:00:48;3.10;99.90
47022;DHT22;32779;52.264;6.154;2022-12-07T00:03:14;3.10;99.90
47022;DHT22;32779;52.264;6.154;2022-12-07T00:05:40;3.10;99.90
47022;DHT22;32779;52.264;6.154;2022-12-07T00:08:05;3.20;99.90
47022;DHT22;32779;52.264;6.154;2022-12-07T00:10:33;3.10;99.90
47022;DHT22;32779;52.264;6.154;2022-12-07T00:12:59;3.10;99.90
47022;DHT22;32779;52.264;6.154;2022-12-07T00:15:25;3.10;99.90
47022;DHT22;32779;52.264;6.154;2022-12-07T00:17:50;3.10;99.90
47022;DHT22;32779;52.264;6.154;2022-12-07T00:20:16;3.10;99.90
47022;DHT22;32779;52.264;6.154;2022-12-07T00:22:41;3.10;99.90
47022;DHT22;32779;52.264;6.154;2022-12-07T00:25:07;3.20;99.90
47022;DHT22;32779;52.264;6.154;2022-12-07T00:27:33;3.30;99.90
47022;DHT22;32779;52.264;6.154;2022-12-07T00:29:58;3.30;99.90
47022;DHT22;32779;52.264;6.154;2022-12-07T00:32:24;3.40;99.90
47022;DHT22;32779;52.264;6.154;2022-12-07T00:34:49;3.40;99.90
47022;DHT22;32779;52.264;6.154;2022-12-07T00:37:15;3.40;99.90
47022;DHT22;32779;52.264;6.154;2022-12-07T00:39:40;3.40;99.90
47022;DHT22;32779;52.264;6.154;2022-12-07T00:42:06;3.40;99.90
47022;DHT22;32779;52.264;6.154;2022-12-07T00:44:32;3.40;99.90
47022;DHT22;32779;52.264;6.154;2022-12-07T00:46:57;3.30;99.90
47022;DHT22;32779;52.264;6.154;2022-12-07T00:49:23;3.30;99.90
47022;DHT22;32779;52.264;6.154;2022-12-07T00:51:49;3.30;99.90
47022;DHT22;32779;52.264;6.154;2022-12-07T00:54:14;3.30;99.90
47022;DHT22;32779;52.264;6.154;2022-12-07T00:56:40;3.20;99.90
47022;DHT22;32779;52.264;6.154;2022-12-07T00:59:06;3.20;99.90
47022;DHT22;32779;52.264;6.154;2022-12-07T01:01:34;3.10;99.90
47022;DHT22;32779;52.264;6.154;2022-12-07T01:04:01;3.20;99.90
47022;DHT22;32779;52.264;6.154;2022-12-07T01:06:27;3.10;99.90
47022;DHT22;32779;52.264;6.154;2022-12-07T01:08:53;3.10;99.90
47022;DHT22;32779;52.264;6.154;2022-12-07T01:11:21;3.10;99.90
47022;DHT22;32779;52.264;6.154;2022-12-07T01:13:50;3.10;99.90
47022;DHT22;32779;52.264;6.154;2022-12-07T01:16:16;3.10;99.90
47022;DHT22;32779;52.264;6.154;2022-12-07T01:18:46;3.10;99.90
47022;DHT22;32779;52.264;6.154;2022-12-07T01:21:15;3.00;99.90
47022;DHT22;32779;52.264;6.154;2022-12-07T01:23:41;3.00;99.90
47022;DHT22;32779;52.264;6.154;2022-12-07T01:26:11;2.90;99.90
47022;DHT22;32779;52.264;6.154;2022-12-07T01:28:37;2.90;99.90
47022;DHT22;32779;52.264;6.154;2022-12-07T01:31:05;2.80;99.90
47022;DHT22;32779;52.264;6.154;2022-12-07T01:33:33;2.80;99.90
47022;DHT22;32779;52.264;6.154;2022-12-07T01:36:04;2.70;99.90
47022;DHT22;32779;52.264;6.154;2022-12-07T01:38:31;2.70;99.90
47022;DHT22;32779;52.264;6.154;2022-12-07T01:40:58;2.70;99.90
47022;DHT22;32779;52.264;6.154;2022-12-07T01:43:26;2.60;99.90
47022;DHT22;32779;52.264;6.154;2022-12-07T01:45:52;2.60;99.90
47022;DHT22;32779;52.264;6.154;2022-12-07T01:48:22;2.60;99.90
47022;DHT22;32779;52.264;6.154;2022-12-07T01:50:51;2.50;99.90
47022;DHT22;32779;52.264;6.154;2022-12-07T01:53:19;2.50;99.90
47022;DHT22;32779;52.264;6.154;2022-12-07T01:55:49;2.50;99.90
47022;DHT22;32779;52.264;6.154;2022-12-07T01:58:16;2.50;99.90
47022;DHT22;32779;52.264;6.154;2022-12-07T02:00:42;2.40;99.90
47022;DHT22;32779;52.264;6.154;2022-12-07T02:03:22;2.40;99.90
47022;DHT22;32779;52.264;6.154;2022-12-07T02:05:49;2.40;99.90
47022;DHT22;32779;52.264;6.154;2022-12-07T02:08:16;2.40;99.90
47022;DHT22;32779;52.264;6.154;2022-12-07T02:10:41;2.40;99.90
47022;DHT22;32779;52.264;6.154;2022-12-07T02:13:16;2.40;99.90
47022;DHT22;32779;52.264;6.154;2022-12-07T02:24:14;2.30;99.90
47022;DHT22;32779;52.264;6.154;2022-12-07T02:26:47;2.30;99.90
47022;DHT22;32779;52.264;6.154;2022-12-07T02:29:23;2.30;99.90
47022;DHT22;32779;52.264;6.154;2022-12-07T02:32:53;2.30;99.90
47022;DHT22;32779;52.264;6.154;2022-12-07T02:35:06;2.30;99.90
47022;DHT22;32779;52.264;6.154;2022-12-07T02:37:37;2.30;99.90
47022;DHT22;32779;52.264;6.154;2022-12-07T02:42:48;2.20;99.90
47022;DHT22;32779;52.264;6.154;2022-12-07T02:45:17;2.20;99.90
47022;DHT22;32779;52.264;6.154;2022-12-07T02:47:45;2.30;99.90
47022;DHT22;32779;52.264;6.154;2022-12-07T02:50:12;2.20;99.90
47022;DHT22;32779;52.264;6.154;2022-12-07T02:52:38;2.30;99.90
47022;DHT22;32779;52.264;6.154;2022-12-07T02:55:04;2.30;99.90
47022;DHT22;32779;52.264;6.154;2022-12-07T03:00:24;2.30;99.90
47022;DHT22;32779;52.264;6.154;2022-12-07T03:03:10;2.30;99.90
47022;DHT22;32779;52.264;6.154;2022-12-07T03:11:03;2.40;99.90
47022;DHT22;32779;52.264;6.154;2022-12-07T03:16:18;2.50;99.90
47022;DHT22;32779;52.264;6.154;2022-12-07T03:18:51;2.50;99.90
47022;DHT22;32779;52.264;6.154;2022-12-07T03:21:27;2.40;99.90
47022;DHT22;32779;52.264;6.154;2022-12-07T03:23:58;2.40;99.90
47022;DHT22;32779;52.264;6.154;2022-12-07T03:26:32;2.40;99.90
47022;DHT22;32779;52.264;6.154;2022-12-07T03:29:03;2.40;99.90
47022;DHT22;32779;52.264;6.154;2022-12-07T03:31:33;2.50;99.90
47022;DHT22;32779;52.264;6.154;2022-12-07T03:36:50;2.60;99.90
47022;DHT22;32779;52.264;6.154;2022-12-07T03:39:25;2.50;99.90
47022;DHT22;32779;52.264;6.154;2022-12-07T03:41:53;2.60;99.90
47022;DHT22;32779;52.264;6.154;2022-12-07T03:44:20;2.60;99.90
47022;DHT22;32779;52.264;6.154;2022-12-07T03:47:03;2.50;99.90
47022;DHT22;32779;52.264;6.154;2022-12-07T03:57:13;2.50;99.90
47022;DHT22;32779;52.264;6.154;2022-12-07T03:59:39;2.50;99.90
47022;DHT22;32779;52.264;6.154;2022-12-07T04:02:07;2.50;99.90
47022;DHT22;32779;52.264;6.154;2022-12-07T04:04:33;2.40;99.90
47022;DHT22;32779;52.264;6.154;2022-12-07T04:06:59;2.50;99.90
47022;DHT22;32779;52.264;6.154;2022-12-07T04:09:25;2.50;99.90
47022;DHT22;32779;52.264;6.154;2022-12-07T04:11:51;2.60;99.90
47022;DHT22;32779;52.264;6.154;2022-12-07T04:14:16;2.70;99.90
47022;DHT22;32779;52.264;6.154;2022-12-07T04:19:15;2.80;99.90
47022;DHT22;32779;52.264;6.154;2022-12-07T04:21:42;2.90;99.90
47022;DHT22;32779;52.264;6.154;2022-12-07T04:24:08;2.90;99.90
47022;DHT22;32779;52.264;6.154;2022-12-07T04:26:33;2.90;99.90
47022;DHT22;32779;52.264;6.154;2022-12-07T04:28:59;3.00;99.90
47022;DHT22;32779;52.264;6.154;2022-12-07T04:31:25;3.00;99.90
47022;DHT22;32779;52.264;6.154;2022-12-07T04:33:50;2.90;99.90
47022;DHT22;32779;52.264;6.154;2022-12-07T04:36:16;2.90;99.90
47022;DHT22;32779;52.264;6.154;2022-12-07T04:38:41;2.80;99.90
47022;DHT22;32779;52.264;6.154;2022-12-07T04:41:08;2.80;99.90
47022;DHT22;32779;52.264;6.154;2022-12-07T04:43:35;2.70;99.90
47022;DHT22;32779;52.264;6.154;2022-12-07T04:46:01;2.60;99.90
47022;DHT22;32779;52.264;6.154;2022-12-07T04:48:27;2.50;99.90
47022;DHT22;32779;52.264;6.154;2022-12-07T04:50:53;2.40;99.90
47022;DHT22;32779;52.264;6.154;2022-12-07T04:53:18;2.40;99.90
47022;DHT22;32779;52.264;6.154;2022-12-07T04:55:45;2.40;99.90
47022;DHT22;32779;52.264;6.154;2022-12-07T04:58:12;2.40;99.90
47022;DHT22;32779;52.264;6.154;2022-12-07T05:00:38;2.40;99.90
47022;DHT22;32779;52.264;6.154;2022-12-07T05:03:04;2.30;99.90
47022;DHT22;32779;52.264;6.154;2022-12-07T05:05:30;2.30;99.90
47022;DHT22;32779;52.264;6.154;2022-12-07T05:07:55;2.30;99.90
47022;DHT22;32779;52.264;6.154;2022-12-07T05:10:21;2.20;99.90
47022;DHT22;32779;52.264;6.154;2022-12-07T05:12:47;2.30;99.90
47022;DHT22;32779;52.264;6.154;2022-12-07T05:15:14;2.20;99.90
47022;DHT22;32779;52.264;6.154;2022-12-07T05:17:41;2.20;99.90
47022;DHT22;32779;52.264;6.154;2022-12-07T05:20:06;2.20;99.90
47022;DHT22;32779;52.264;6.154;2022-12-07T05:22:33;2.20;99.90
47022;DHT22;32779;52.264;6.154;2022-12-07T05:24:58;2.40;99.90
47022;DHT22;32779;52.264;6.154;2022-12-07T05:27:24;2.40;99.90
47022;DHT22;32779;52.264;6.154;2022-12-07T05:29:50;2.50;99.90
47022;DHT22;32779;52.264;6.154;2022-12-07T05:32:17;2.50;99.90
47022;DHT22;32779;52.264;6.154;2022-12-07T05:34:42;2.60;99.90
47022;DHT22;32779;52.264;6.154;2022-12-07T05:37:08;2.60;99.90
47022;DHT22;32779;52.264;6.154;2022-12-07T05:39:33;2.70;99.90
47022;DHT22;32779;52.264;6.154;2022-12-07T05:41:59;2.70;99.90
47022;DHT22;32779;52.264;6.154;2022-12-07T05:44:37;2.70;99.90
47022;DHT22;32779;52.264;6.154;2022-12-07T05:47:03;2.70;99.90
47022;DHT22;32779;52.264;6.154;2022-12-07T05:49:29;2.60;99.90
47022;DHT22;32779;52.264;6.154;2022-12-07T05:51:55;2.60;99.90
47022;DHT22;32779;52.264;6.154;2022-12-07T05:54:20;2.50;99.90
47022;DHT22;32779;52.264;6.154;2022-12-07T05:56:46;2.50;99.90
47022;DHT22;32779;52.264;6.154;2022-12-07T05:59:12;2.50;99.90
47022;DHT22;32779;52.264;6.154;2022-12-07T06:01:53;2.50;99.90
47022;DHT22;32779;52.264;6.154;2022-12-07T06:04:19;2.50;99.90
47022;DHT22;32779;52.264;6.154;2022-12-07T06:06:46;2.50;99.90
47022;DHT22;32779;52.264;6.154;2022-12-07T06:09:12;2.40;99.90
47022;DHT22;32779;52.264;6.154;2022-12-07T06:11:38;2.40;99.90
47022;DHT22;32779;52.264;6.154;2022-12-07T06:14:23;2.40;99.90
47022;DHT22;32779;52.264;6.154;2022-12-07T06:16:48;2.30;99.90
47022;DHT22;32779;52.264;6.154;2022-12-07T06:19:14;2.30;99.90
47022;DHT22;32779;52.264;6.154;2022-12-07T06:21:40;2.30;99.90
47022;DHT22;32779;52.264;6.154;2022-12-07T06:24:06;2.20;99.90
47022;DHT22;32779;52.264;6.154;2022-12-07T06:26:31;2.10;99.90
47022;DHT22;32779;52.264;6.154;2022-12-07T06:28:57;2.10;99.90
47022;DHT22;32779;52.264;6.154;2022-12-07T06:31:23;2.10;99.90
47022;DHT22;32779;52.264;6.154;2022-12-07T06:33:48;2.10;99.90
47022;DHT22;32779;52.264;6.154;2022-12-07T06:36:14;2.00;99.90
47022;DHT22;32779;52.264;6.154;2022-12-07T06:38:40;2.00;99.90
47022;DHT22;32779;52.264;6.154;2022-12-07T06:41:06;2.00;99.90
47022;DHT22;32779;52.264;6.154;2022-12-07T06:43:32;2.00;99.90
47022;DHT22;32779;52.264;6.154;2022-12-07T06:45:57;1.90;99.90
47022;DHT22;32779;52.264;6.154;2022-12-07T06:48:23;1.80;99.90
47022;DHT22;32779;52.264;6.154;2022-12-07T06:50:48;1.90;99.90
47022;DHT22;32779;52.264;6.154;2022-12-07T06:53:14;1.80;99.90
47022;DHT22;32779;52.264;6.154;2022-12-07T06:55:40;1.90;99.90
47022;DHT22;32779;52.264;6.154;2022-12-07T06:58:06;1.90;99.90
47022;DHT22;32779;52.264;6.154;2022-12-07T07:00:32;1.90;99.90
47022;DHT22;32779;52.264;6.154;2022-12-07T07:03:00;1.90;99.90
47022;DHT22;32779;52.264;6.154;2022-12-07T07:05:26;1.90;99.90
47022;DHT22;32779;52.264;6.154;2022-12-07T07:07:51;1.80;99.90
47022;DHT22;32779;52.264;6.154;2022-12-07T07:10:17;1.80;99.90
47022;DHT22;32779;52.264;6.154;2022-12-07T07:12:43;1.80;99.90
47022;DHT22;32779;52.264;6.154;2022-12-07T07:15:08;1.80;99.90
47022;DHT22;32779;52.264;6.154;2022-12-07T07:17:35;1.80;99.90
47022;DHT22;32779;52.264;6.154;2022-12-07T07:20:00;1.80;99.90
47022;DHT22;32779;52.264;6.154;2022-12-07T07:22:26;1.70;99.90
47022;DHT22;32779;52.264;6.154;2022-12-07T07:24:51;1.70;99.90
47022;DHT22;32779;52.264;6.154;2022-12-07T07:27:17;1.70;99.90
47022;DHT22;32779;52.264;6.154;2022-12-07T07:29:42;1.70;99.90
47022;DHT22;32779;52.264;6.154;2022-12-07T07:32:08;1.60;99.90
47022;DHT22;32779;52.264;6.154;2022-12-07T07:34:34;1.60;99.90
47022;DHT22;32779;52.264;6.154;2022-12-07T07:36:59;1.60;99.90
47022;DHT22;32779;52.264;6.154;2022-12-07T07:39:25;1.50;99.90
47022;DHT22;32779;52.264;6.154;2022-12-07T07:41:51;1.60;99.90
47022;DHT22;32779;52.264;6.154;2022-12-07T07:44:16;1.60;99.90
47022;DHT22;32779;52.264;6.154;2022-12-07T07:46:42;1.60;99.90
47022;DHT22;32779;52.264;6.154;2022-12-07T07:49:09;1.70;99.90
47022;DHT22;32779;52.264;6.154;2022-12-07T07:51:35;1.70;99.90
47022;DHT22;32779;52.264;6.154;2022-12-07T07:54:01;1.80;99.90
47022;DHT22;32779;52.264;6.154;2022-12-07T07:56:27;1.90;99.90
47022;DHT22;32779;52.264;6.154;2022-12-07T07:58:53;2.00;99.90
47022;DHT22;32779;52.264;6.154;2022-12-07T08:01:18;2.10;99.90
47022;DHT22;32779;52.264;6.154;2022-12-07T08:03:47;2.20;99.90
47022;DHT22;32779;52.264;6.154;2022-12-07T08:06:13;2.20;99.90
47022;DHT22;32779;52.264;6.154;2022-12-07T08:08:38;2.30;99.90
47022;DHT22;32779;52.264;6.154;2022-12-07T08:11:08;2.30;99.90
47022;DHT22;32779;52.264;6.154;2022-12-07T08:13:34;2.30;99.90
47022;DHT22;32779;52.264;6.154;2022-12-07T08:16:04;2.40;99.90
47022;DHT22;32779;52.264;6.154;2022-12-07T08:18:30;2.40;99.90
47022;DHT22;32779;52.264;6.154;2022-12-07T08:20:59;2.40;99.90
47022;DHT22;32779;52.264;6.154;2022-12-07T08:23:28;2.50;99.90
47022;DHT22;32779;52.264;6.154;2022-12-07T08:25:54;2.50;99.90
47022;DHT22;32779;52.264;6.154;2022-12-07T08:28:20;2.50;99.90
47022;DHT22;32779;52.264;6.154;2022-12-07T08:30:45;2.50;99.90
47022;DHT22;32779;52.264;6.154;2022-12-07T08:33:11;2.50;99.90
47022;DHT22;32779;52.264;6.154;2022-12-07T08:35:37;2.50;99.90
47022;DHT22;32779;52.264;6.154;2022-12-07T08:38:03;2.50;99.90
47022;DHT22;32779;52.264;6.154;2022-12-07T08:40:29;2.50;99.90
47022;DHT22;32779;52.264;6.154;2022-12-07T08:42:55;2.60;99.90
47022;DHT22;32779;52.264;6.154;2022-12-07T08:45:21;2.60;99.90
47022;DHT22;32779;52.264;6.154;2022-12-07T08:47:59;2.60;99.90
47022;DHT22;32779;52.264;6.154;2022-12-07T08:50:27;2.70;99.90
47022;DHT22;32779;52.264;6.154;2022-12-07T08:52:55;2.80;99.90
47022;DHT22;32779;52.264;6.154;2022-12-07T08:55:23;2.80;99.90
47022;DHT22;32779;52.264;6.154;2022-12-07T08:57:49;2.80;99.90
47022;DHT22;32779;52.264;6.154;2022-12-07T09:00:15;2.80;99.90
47022;DHT22;32779;52.264;6.154;2022-12-07T09:02:43;2.80;99.90
47022;DHT22;32779;52.264;6.154;2022-12-07T09:05:10;2.80;99.90
47022;DHT22;32779;52.264;6.154;2022-12-07T09:07:35;2.80;99.90
47022;DHT22;32779;52.264;6.154;2022-12-07T09:10:02;2.80;99.90
47022;DHT22;32779;52.264;6.154;2022-12-07T09:12:28;2.80;99.90
47022;DHT22;32779;52.264;6.154;2022-12-07T09:14:53;2.90;99.90
47022;DHT22;32779;52.264;6.154;2022-12-07T09:17:19;2.90;99.90
47022;DHT22;32779;52.264;6.154;2022-12-07T09:19:44;3.00;99.90
47022;DHT22;32779;52.264;6.154;2022-12-07T09:22:09;3.00;99.90
47022;DHT22;32779;52.264;6.154;2022-12-07T09:24:36;3.10;99.90
47022;DHT22;32779;52.264;6.154;2022-12-07T09:27:01;3.10;99.90
47022;DHT22;32779;52.264;6.154;2022-12-07T09:29:26;3.30;99.90
47022;DHT22;32779;52.264;6.154;2022-12-07T09:31:52;3.30;99.90
47022;DHT22;32779;52.264;6.154;2022-12-07T09:34:18;3.40;99.90
47022;DHT22;32779;52.264;6.154;2022-12-07T09:36:43;3.40;99.90
47022;DHT22;32779;52.264;6.154;2022-12-07T09:39:09;3.40;99.90
47022;DHT22;32779;52.264;6.154;2022-12-07T09:41:37;3.50;99.90
47022;DHT22;32779;52.264;6.154;2022-12-07T09:44:13;3.50;99.90
47022;DHT22;32779;52.264;6.154;2022-12-07T09:46:42;3.50;99.90
47022;DHT22;32779;52.264;6.154;2022-12-07T09:49:10;3.50;99.90
47022;DHT22;32779;52.264;6.154;2022-12-07T09:51:36;3.50;99.90
47022;DHT22;32779;52.264;6.154;2022-12-07T09:54:02;3.60;99.90
47022;DHT22;32779;52.264;6.154;2022-12-07T09:56:28;3.60;99.90
47022;DHT22;32779;52.264;6.154;2022-12-07T09:58:59;3.60;99.90
47022;DHT22;32779;52.264;6.154;2022-12-07T10:01:27;3.70;99.90
47022;DHT22;32779;52.264;6.154;2022-12-07T10:04:15;3.80;99.90
47022;DHT22;32779;52.264;6.154;2022-12-07T10:06:39;3.80;99.90
47022;DHT22;32779;52.264;6.154;2022-12-07T10:09:11;4.00;99.90
47022;DHT22;32779;52.264;6.154;2022-12-07T10:11:57;4.10;99.90
47022;DHT22;32779;52.264;6.154;2022-12-07T10:14:22;4.20;99.90
47022;DHT22;32779;52.264;6.154;2022-12-07T10:16:48;4.30;99.90
47022;DHT22;32779;52.264;6.154;2022-12-07T10:19:22;4.40;99.90
47022;DHT22;32779;52.264;6.154;2022-12-07T10:24:28;4.50;99.90
47022;DHT22;32779;52.264;6.154;2022-12-07T10:26:54;4.60;99.90
47022;DHT22;32779;52.264;6.154;2022-12-07T10:29:24;4.60;99.90
47022;DHT22;32779;52.264;6.154;2022-12-07T10:34:26;4.60;99.90
47022;DHT22;32779;52.264;6.154;2022-12-07T10:36:52;4.70;99.90
47022;DHT22;32779;52.264;6.154;2022-12-07T10:39:22;4.80;99.90
47022;DHT22;32779;52.264;6.154;2022-12-07T10:41:54;5.00;99.90
47022;DHT22;32779;52.264;6.154;2022-12-07T10:44:22;5.10;99.90
47022;DHT22;32779;52.264;6.154;2022-12-07T10:46:53;5.10;99.90
47022;DHT22;32779;52.264;6.154;2022-12-07T10:49:26;5.10;99.90
47022;DHT22;32779;52.264;6.154;2022-12-07T10:54:58;5.10;99.90
47022;DHT22;32779;52.264;6.154;2022-12-07T10:57:38;5.10;99.90
47022;DHT22;32779;52.264;6.154;2022-12-07T11:05:27;5.00;99.90
47022;DHT22;32779;52.264;6.154;2022-12-07T11:08:03;5.00;99.90
47022;DHT22;32779;52.264;6.154;2022-12-07T11:10:33;4.90;99.90
47022;DHT22;32779;52.264;6.154;2022-12-07T11:13:14;4.90;99.90
47022;DHT22;32779;52.264;6.154;2022-12-07T11:20:43;4.80;99.90
47022;DHT22;32779;52.264;6.154;2022-12-07T11:25:39;4.80;99.90
47022;DHT22;32779;52.264;6.154;2022-12-07T11:33:39;4.80;99.90
47022;DHT22;32779;52.264;6.154;2022-12-07T11:36:17;4.80;99.90
47022;DHT22;32779;52.264;6.154;2022-12-07T11:38:59;4.90;99.90
47022;DHT22;32779;52.264;6.154;2022-12-07T11:41:29;4.90;99.90
47022;DHT22;32779;52.264;6.154;2022-12-07T11:49:14;5.10;99.90
47022;DHT22;32779;52.264;6.154;2022-12-07T11:51:41;5.10;99.90
47022;DHT22;32779;52.264;6.154;2022-12-07T11:54:12;5.20;99.90
47022;DHT22;32779;52.264;6.154;2022-12-07T11:56:39;5.20;99.90
47022;DHT22;32779;52.264;6.154;2022-12-07T12:06:35;5.40;99.90
47022;DHT22;32779;52.264;6.154;2022-12-07T12:09:14;5.50;99.90
47022;DHT22;32779;52.264;6.154;2022-12-07T12:19:57;5.90;99.90
47022;DHT22;32779;52.264;6.154;2022-12-07T12:22:20;6.00;99.90
47022;DHT22;32779;52.264;6.154;2022-12-07T12:24:49;6.00;99.90
47022;DHT22;32779;52.264;6.154;2022-12-07T12:27:37;6.00;99.90
47022;DHT22;32779;52.264;6.154;2022-12-07T12:30:03;6.00;99.90
47022;DHT22;32779;52.264;6.154;2022-12-07T12:37:43;5.80;99.90
47022;DHT22;32779;52.264;6.154;2022-12-07T12:42:58;5.80;99.90
47022;DHT22;32779;52.264;6.154;2022-12-07T12:47:53;5.70;99.90
47022;DHT22;32779;52.264;6.154;2022-12-07T12:50:20;5.70;99.90
47022;DHT22;32779;52.264;6.154;2022-12-07T12:52:52;5.70;99.90
47022;DHT22;32779;52.264;6.154;2022-12-07T12:55:19;5.70;99.90
47022;DHT22;32779;52.264;6.154;2022-12-07T13:01:31;5.70;99.90
47022;DHT22;32779;52.264;6.154;2022-12-07T13:03:36;5.80;99.90
47022;DHT22;32779;52.264;6.154;2022-12-07T13:06:17;5.80;99.90
47022;DHT22;32779;52.264;6.154;2022-12-07T13:08:43;5.80;99.90
47022;DHT22;32779;52.264;6.154;2022-12-07T13:13:56;5.90;99.90
47022;DHT22;32779;52.264;6.154;2022-12-07T13:16:39;6.00;99.90
47022;DHT22;32779;52.264;6.154;2022-12-07T13:19:27;6.00;99.90
47022;DHT22;32779;52.264;6.154;2022-12-07T13:21:50;6.00;99.90
47022;DHT22;32779;52.264;6.154;2022-12-07T13:24:16;6.00;99.90
47022;DHT22;32779;52.264;6.154;2022-12-07T13:26:42;6.10;99.90
47022;DHT22;32779;52.264;6.154;2022-12-07T13:29:18;6.00;99.90
47022;DHT22;32779;52.264;6.154;2022-12-07T13:31:55;6.00;99.90
47022;DHT22;32779;52.264;6.154;2022-12-07T13:36:52;6.10;99.90
47022;DHT22;32779;52.264;6.154;2022-12-07T13:39:22;6.10;99.90
47022;DHT22;32779;52.264;6.154;2022-12-07T13:41:50;6.00;99.90
47022;DHT22;32779;52.264;6.154;2022-12-07T13:44:16;6.00;99.90
47022;DHT22;32779;52.264;6.154;2022-12-07T13:49:23;6.00;99.90
47022;DHT22;32779;52.264;6.154;2022-12-07T13:51:49;6.00;99.90
47022;DHT22;32779;52.264;6.154;2022-12-07T13:54:15;5.90;99.90
47022;DHT22;32779;52.264;6.154;2022-12-07T13:56:41;5.90;99.90
47022;DHT22;32779;52.264;6.154;2022-12-07T13:59:12;6.00;99.90
47022;DHT22;32779;52.264;6.154;2022-12-07T14:01:38;6.00;99.90
47022;DHT22;32779;52.264;6.154;2022-12-07T14:04:27;6.00;99.90
47022;DHT22;32779;52.264;6.154;2022-12-07T14:06:54;6.00;99.90
47022;DHT22;32779;52.264;6.154;2022-12-07T14:09:21;6.00;99.90
47022;DHT22;32779;52.264;6.154;2022-12-07T14:11:48;6.10;99.90
47022;DHT22;32779;52.264;6.154;2022-12-07T14:14:22;6.00;99.90
47022;DHT22;32779;52.264;6.154;2022-12-07T14:22:07;6.00;99.90
47022;DHT22;32779;52.264;6.154;2022-12-07T14:24:41;6.00;99.90
47022;DHT22;32779;52.264;6.154;2022-12-07T14:27:15;6.00;99.90
47022;DHT22;32779;52.264;6.154;2022-12-07T14:29:42;5.90;99.90
47022;DHT22;32779;52.264;6.154;2022-12-07T14:32:20;5.90;99.90
47022;DHT22;32779;52.264;6.154;2022-12-07T14:34:54;5.80;99.90
47022;DHT22;32779;52.264;6.154;2022-12-07T14:37:20;5.70;99.90
47022;DHT22;32779;52.264;6.154;2022-12-07T14:39:45;5.70;99.90
47022;DHT22;32779;52.264;6.154;2022-12-07T14:42:11;5.60;99.90
47022;DHT22;32779;52.264;6.154;2022-12-07T14:44:36;5.60;99.90
47022;DHT22;32779;52.264;6.154;2022-12-07T14:47:02;5.60;99.90
47022;DHT22;32779;52.264;6.154;2022-12-07T14:49:27;5.50;99.90
47022;DHT22;32779;52.264;6.154;2022-12-07T14:51:53;5.40;99.90
47022;DHT22;32779;52.264;6.154;2022-12-07T14:54:19;5.40;99.90
47022;DHT22;32779;52.264;6.154;2022-12-07T14:56:45;5.40;99.90
47022;DHT22;32779;52.264;6.154;2022-12-07T14:59:14;5.40;99.90
47022;DHT22;32779;52.264;6.154;2022-12-07T15:01:39;5.30;99.90
47022;DHT22;32779;52.264;6.154;2022-12-07T15:04:05;5.20;99.90
47022;DHT22;32779;52.264;6.154;2022-12-07T15:06:30;5.10;99.90
47022;DHT22;32779;52.264;6.154;2022-12-07T15:08:56;5.10;99.90
47022;DHT22;32779;52.264;6.154;2022-12-07T15:11:21;5.00;99.90
47022;DHT22;32779;52.264;6.154;2022-12-07T15:13:47;4.90;99.90
47022;DHT22;32779;52.264;6.154;2022-12-07T15:16:31;4.90;99.90
47022;DHT22;32779;52.264;6.154;2022-12-07T15:18:57;4.90;99.90
47022;DHT22;32779;52.264;6.154;2022-12-07T15:21:22;4.90;99.90
47022;DHT22;32779;52.264;6.154;2022-12-07T15:23:48;4.80;99.90
47022;DHT22;32779;52.264;6.154;2022-12-07T15:26:13;4.70;99.90
47022;DHT22;32779;52.264;6.154;2022-12-07T15:28:39;4.70;99.90
47022;DHT22;32779;52.264;6.154;2022-12-07T15:31:10;4.70;99.90
47022;DHT22;32779;52.264;6.154;2022-12-07T15:33:36;4.60;99.90
47022;DHT22;32779;52.264;6.154;2022-12-07T15:36:01;4.60;99.90
47022;DHT22;32779;52.264;6.154;2022-12-07T15:38:27;4.60;99.90
47022;DHT22;32779;52.264;6.154;2022-12-07T15:40:53;4.60;99.90
47022;DHT22;32779;52.264;6.154;2022-12-07T15:43:19;4.50;99.90
47022;DHT22;32779;52.264;6.154;2022-12-07T15:46:03;4.50;99.90
47022;DHT22;32779;52.264;6.154;2022-12-07T15:48:28;4.50;99.90
47022;DHT22;32779;52.264;6.154;2022-12-07T15:51:00;4.50;99.90
47022;DHT22;32779;52.264;6.154;2022-12-07T15:53:26;4.50;99.90
47022;DHT22;32779;52.264;6.154;2022-12-07T15:55:52;4.40;99.90
47022;DHT22;32779;52.264;6.154;2022-12-07T15:58:17;4.40;99.90
47022;DHT22;32779;52.264;6.154;2022-12-07T16:00:42;4.40;99.90
47022;DHT22;32779;52.264;6.154;2022-12-07T16:03:08;4.30;99.90
47022;DHT22;32779;52.264;6.154;2022-12-07T16:05:33;4.30;99.90
47022;DHT22;32779;52.264;6.154;2022-12-07T16:07:59;4.30;99.90
47022;DHT22;32779;52.264;6.154;2022-12-07T16:10:24;4.20;99.90
47022;DHT22;32779;52.264;6.154;2022-12-07T16:12:50;4.30;99.90
47022;DHT22;32779;52.264;6.154;2022-12-07T16:15:15;4.30;99.90
47022;DHT22;32779;52.264;6.154;2022-12-07T16:17:41;4.20;99.90
47022;DHT22;32779;52.264;6.154;2022-12-07T16:20:06;4.30;99.90
47022;DHT22;32779;52.264;6.154;2022-12-07T16:22:33;4.20;99.90
47022;DHT22;32779;52.264;6.154;2022-12-07T16:24:58;4.20;99.90
47022;DHT22;32779;52.264;6.154;2022-12-07T16:27:24;4.20;99.90
47022;DHT22;32779;52.264;6.154;2022-12-07T16:29:49;4.20;99.90
47022;DHT22;32779;52.264;6.154;2022-12-07T16:32:15;4.20;99.90
47022;DHT22;32779;52.264;6.154;2022-12-07T16:34:40;4.20;99.90
47022;DHT22;32779;52.264;6.154;2022-12-07T16:37:06;4.20;99.90
47022;DHT22;32779;52.264;6.154;2022-12-07T16:39:32;4.20;99.90
47022;DHT22;32779;52.264;6.154;2022-12-07T16:41:58;4.20;99.90
47022;DHT22;32779;52.264;6.154;2022-12-07T16:44:23;4.20;99.90
47022;DHT22;32779;52.264;6.154;2022-12-07T16:46:49;4.10;99.90
47022;DHT22;32779;52.264;6.154;2022-12-07T16:49:15;4.10;99.90
47022;DHT22;32779;52.264;6.154;2022-12-07T16:51:40;4.10;99.90
47022;DHT22;32779;52.264;6.154;2022-12-07T16:54:09;4.10;99.90
47022;DHT22;32779;52.264;6.154;2022-12-07T16:56:35;4.10;99.90
47022;DHT22;32779;52.264;6.154;2022-12-07T16:59:00;4.10;99.90
47022;DHT22;32779;52.264;6.154;2022-12-07T17:01:26;4.10;99.90
47022;DHT22;32779;52.264;6.154;2022-12-07T17:03:55;4.10;99.90
47022;DHT22;32779;52.264;6.154;2022-12-07T17:06:22;4.10;99.90
47022;DHT22;32779;52.264;6.154;2022-12-07T17:08:48;4.10;99.90
47022;DHT22;32779;52.264;6.154;2022-12-07T17:11:17;4.10;99.90
47022;DHT22;32779;52.264;6.154;2022-12-07T17:13:43;4.10;99.90
47022;DHT22;32779;52.264;6.154;2022-12-07T17:16:28;4.00;99.90
47022;DHT22;32779;52.264;6.154;2022-12-07T17:18:53;4.00;99.90
47022;DHT22;32779;52.264;6.154;2022-12-07T17:21:22;4.00;99.90
47022;DHT22;32779;52.264;6.154;2022-12-07T17:23:51;4.00;99.90
47022;DHT22;32779;52.264;6.154;2022-12-07T17:26:19;4.10;99.90
47022;DHT22;32779;52.264;6.154;2022-12-07T17:28:45;4.00;99.90
47022;DHT22;32779;52.264;6.154;2022-12-07T17:31:12;4.00;99.90
47022;DHT22;32779;52.264;6.154;2022-12-07T17:33:37;4.00;99.90
47022;DHT22;32779;52.264;6.154;2022-12-07T17:36:12;3.90;99.90
47022;DHT22;32779;52.264;6.154;2022-12-07T17:38:38;3.90;99.90